createdAt,value
2018-12-06T00:01:49.601Z,5.37
2018-12-06T00:04:16.234Z,4.80
2018-12-06T00:06:42.853Z,4.70
2018-12-06T00:09:09.267Z,4.73
2018-12-06T00:11:35.909Z,4.97
2018-12-06T00:14:02.416Z,4.13
2018-12-06T00:16:29.077Z,4.53
2018-12-06T00:19:04.472Z,4.67
2018-12-06T00:21:31.143Z,4.43
2018-12-06T00:23:57.853Z,4.93
2018-12-06T00:26:24.540Z,4.70
2018-12-06T00:28:51.027Z,4.93
2018-12-06T00:31:17.312Z,5.10
2018-12-06T00:33:43.749Z,4.60
2018-12-06T00:36:10.131Z,4.67
2018-12-06T00:38:36.812Z,5.13
2018-12-06T00:41:03.440Z,4.43
2018-12-06T00:43:30.077Z,3.80
2018-12-06T00:45:56.690Z,4.33
2018-12-06T00:48:23.569Z,4.23
2018-12-06T00:50:49.843Z,4.00
2018-12-06T00:53:16.116Z,4.17
2018-12-06T00:55:42.750Z,4.87
2018-12-06T00:58:09.390Z,4.47
2018-12-06T01:00:35.790Z,4.30
2018-12-06T01:03:02.437Z,4.33
2018-12-06T01:05:29.079Z,5.50
2018-12-06T01:07:55.788Z,4.90
2018-12-06T01:10:22.214Z,5.73
2018-12-06T01:12:48.514Z,5.20
2018-12-06T01:15:15.175Z,5.00
2018-12-06T01:17:41.796Z,4.70
2018-12-06T01:20:08.294Z,5.20
2018-12-06T01:22:34.557Z,5.53
2018-12-06T01:25:01.184Z,4.50
2018-12-06T01:27:27.821Z,4.13
2018-12-06T01:29:54.115Z,4.83
2018-12-06T01:32:20.745Z,4.70
2018-12-06T01:34:47.047Z,4.37
2018-12-06T01:37:13.313Z,4.63
2018-12-06T01:39:39.940Z,4.47
2018-12-06T01:42:06.586Z,4.43
2018-12-06T01:44:33.224Z,5.33
2018-12-06T01:46:59.844Z,4.50
2018-12-06T01:49:26.492Z,4.13
2018-12-06T01:51:52.757Z,4.47
2018-12-06T01:54:19.036Z,4.33
2018-12-06T01:56:45.686Z,4.47
2018-12-06T01:59:12.371Z,4.00
2018-12-06T02:01:38.995Z,4.00
2018-12-06T02:04:05.683Z,4.10
2018-12-06T02:06:32.319Z,3.77
2018-12-06T02:08:59.005Z,3.47
2018-12-06T02:11:25.429Z,4.23
2018-12-06T02:13:52.079Z,4.03
2018-12-06T02:16:18.719Z,3.80
2018-12-06T02:18:45.008Z,3.70
2018-12-06T02:21:11.634Z,3.27
2018-12-06T02:23:38.288Z,4.13
2018-12-06T02:26:05.069Z,3.23
2018-12-06T02:28:31.704Z,3.70
2018-12-06T02:30:58.360Z,3.13
2018-12-06T02:33:24.610Z,2.90
2018-12-06T02:35:50.904Z,3.80
2018-12-06T02:38:17.296Z,4.47
2018-12-06T02:40:44.223Z,4.27
2018-12-06T02:43:10.752Z,4.03
2018-12-06T02:45:37.377Z,3.97
2018-12-06T02:48:04.024Z,3.73
2018-12-06T02:50:30.665Z,3.90
2018-12-06T02:52:56.964Z,3.30
2018-12-06T02:55:23.272Z,3.00
2018-12-06T02:57:49.931Z,3.23
2018-12-06T03:00:16.263Z,3.03
2018-12-06T03:02:42.914Z,3.53
2018-12-06T03:05:16.310Z,3.83
2018-12-06T03:07:42.583Z,3.70
2018-12-06T03:10:09.226Z,3.70
2018-12-06T03:12:35.879Z,3.17
2018-12-06T03:15:02.378Z,2.77
2018-12-06T03:17:29.023Z,2.23
2018-12-06T03:19:55.365Z,2.30
2018-12-06T03:22:21.662Z,2.40
2018-12-06T03:24:47.934Z,2.17
2018-12-06T03:27:15.606Z,2.13
2018-12-06T03:29:42.256Z,2.43
2018-12-06T03:32:08.917Z,2.60
2018-12-06T03:34:35.526Z,2.57
2018-12-06T03:37:02.169Z,2.33
2018-12-06T03:39:28.836Z,2.03
2018-12-06T03:41:55.103Z,2.00
2018-12-06T03:44:21.382Z,2.70
2018-12-06T03:46:47.658Z,2.10
2018-12-06T03:49:13.954Z,2.13
2018-12-06T03:51:40.565Z,1.80
2018-12-06T03:54:07.193Z,2.10
2018-12-06T03:56:33.863Z,1.70
2018-12-06T03:59:00.128Z,1.93
2018-12-06T04:01:27.089Z,2.20
2018-12-06T04:03:53.547Z,2.10
2018-12-06T04:06:20.224Z,2.20
2018-12-06T04:08:46.868Z,2.50
2018-12-06T04:11:13.502Z,2.13
2018-12-06T04:13:46.648Z,2.50
2018-12-06T04:16:12.982Z,2.13
2018-12-06T04:18:39.624Z,2.43
2018-12-06T04:21:06.256Z,2.13
2018-12-06T04:23:32.903Z,2.20
2018-12-06T04:25:59.310Z,2.50
2018-12-06T04:28:26.112Z,2.60
2018-12-06T04:30:52.741Z,2.70
2018-12-06T04:33:19.382Z,2.73
2018-12-06T04:35:45.682Z,2.43
2018-12-06T04:38:12.337Z,2.50
2018-12-06T04:40:39.001Z,2.60
2018-12-06T04:43:05.622Z,3.13
2018-12-06T04:45:32.276Z,2.97
2018-12-06T04:47:58.897Z,4.30
2018-12-06T04:50:25.526Z,4.17
2018-12-06T04:52:52.164Z,2.70
2018-12-06T04:55:18.588Z,3.03
2018-12-06T04:57:45.200Z,3.00
2018-12-06T05:00:11.476Z,3.40
2018-12-06T05:02:38.112Z,3.67
2018-12-06T05:05:04.847Z,3.93
2018-12-06T05:07:31.475Z,4.07
2018-12-06T05:09:58.091Z,3.93
2018-12-06T05:12:24.415Z,3.50
2018-12-06T05:14:51.857Z,3.80
2018-12-06T05:17:18.560Z,3.40
2018-12-06T05:19:44.865Z,3.93
2018-12-06T05:22:11.509Z,4.47
2018-12-06T05:24:38.180Z,3.80
2018-12-06T05:27:04.557Z,3.50
2018-12-06T05:29:31.191Z,4.03
2018-12-06T05:31:57.828Z,3.50
2018-12-06T05:34:24.465Z,3.37
2018-12-06T05:36:51.100Z,4.13
2018-12-06T05:39:17.758Z,25.27
2018-12-06T05:41:44.376Z,5.13
2018-12-06T05:44:11.014Z,4.77
2018-12-06T05:46:37.282Z,4.20
2018-12-06T05:49:03.571Z,4.10
2018-12-06T05:51:29.879Z,4.47
2018-12-06T05:53:56.518Z,4.07
2018-12-06T05:56:23.160Z,3.63
2018-12-06T05:58:49.790Z,2.83
2018-12-06T06:01:16.433Z,3.17
2018-12-06T06:03:43.571Z,2.93
2018-12-06T06:06:10.316Z,2.80
2018-12-06T06:08:36.945Z,2.67
2018-12-06T06:11:03.593Z,2.60
2018-12-06T06:13:30.224Z,2.60
2018-12-06T06:15:56.873Z,2.47
2018-12-06T06:18:24.166Z,2.30
2018-12-06T06:20:50.863Z,2.50
2018-12-06T06:23:17.646Z,2.40
2018-12-06T06:25:44.318Z,3.00
2018-12-06T06:28:10.641Z,3.13
2018-12-06T06:30:37.284Z,3.30
2018-12-06T06:33:03.939Z,2.47
2018-12-06T06:35:30.246Z,3.03
2018-12-06T06:37:56.545Z,2.90
2018-12-06T06:40:23.177Z,3.17
2018-12-06T06:42:49.800Z,2.90
2018-12-06T06:45:16.563Z,2.90
2018-12-06T06:47:43.204Z,3.10
2018-12-06T06:50:09.845Z,2.93
2018-12-06T06:52:36.504Z,3.23
2018-12-06T06:55:03.169Z,18.20
2018-12-06T06:57:29.788Z,3.10
2018-12-06T06:59:56.400Z,3.50
2018-12-06T07:02:23.048Z,3.10
2018-12-06T07:04:49.333Z,3.20
2018-12-06T07:07:15.980Z,3.10
2018-12-06T07:09:42.661Z,3.60
2018-12-06T07:12:09.277Z,3.20
2018-12-06T07:14:35.899Z,3.90
2018-12-06T07:17:04.046Z,3.53
2018-12-06T07:19:30.840Z,3.70
2018-12-06T07:21:57.185Z,2.87
2018-12-06T07:24:23.818Z,3.83
2018-12-06T07:26:50.138Z,3.17
2018-12-06T07:29:16.816Z,3.37
2018-12-06T07:31:43.462Z,3.00
2018-12-06T07:34:09.989Z,2.73
2018-12-06T07:36:36.344Z,2.57
2018-12-06T07:39:04.314Z,2.93
2018-12-06T07:41:30.959Z,2.77
2018-12-06T07:43:58.296Z,3.53
2018-12-06T07:46:24.965Z,3.43
2018-12-06T07:48:51.624Z,2.90
2018-12-06T07:51:18.277Z,2.80
2018-12-06T07:53:45.013Z,2.70
2018-12-06T07:56:11.709Z,2.90
2018-12-06T07:58:38.354Z,2.60
2018-12-06T08:01:04.768Z,2.37
2018-12-06T08:03:31.054Z,2.87
2018-12-06T08:05:57.685Z,2.90
2018-12-06T08:08:24.323Z,2.40
2018-12-06T08:10:50.967Z,2.47
2018-12-06T08:13:17.613Z,3.13
2018-12-06T08:15:44.248Z,2.50
2018-12-06T08:18:11.152Z,2.50
2018-12-06T08:20:37.925Z,2.03
2018-12-06T08:23:04.577Z,2.80
2018-12-06T08:25:31.229Z,2.30
2018-12-06T08:27:57.898Z,2.40
2018-12-06T08:30:24.300Z,2.37
2018-12-06T08:32:51.209Z,2.10
2018-12-06T08:35:17.915Z,2.33
2018-12-06T08:37:44.569Z,2.23
2018-12-06T08:40:11.231Z,2.43
2018-12-06T08:42:45.437Z,1.97
2018-12-06T08:45:07.585Z,2.17
2018-12-06T08:47:34.220Z,2.00
2018-12-06T08:50:01.037Z,2.07
2018-12-06T08:52:27.664Z,1.80
2018-12-06T08:54:54.308Z,2.03
2018-12-06T08:57:20.601Z,1.70
2018-12-06T08:59:46.928Z,1.40
2018-12-06T09:02:13.553Z,1.87
2018-12-06T09:04:40.256Z,1.83
2018-12-06T09:07:06.904Z,1.60
2018-12-06T09:09:33.229Z,2.07
2018-12-06T09:11:59.866Z,1.80
2018-12-06T09:14:26.174Z,1.73
2018-12-06T09:16:52.480Z,1.87
2018-12-06T09:19:19.563Z,1.60
2018-12-06T09:21:46.205Z,1.90
2018-12-06T09:24:12.853Z,2.10
2018-12-06T09:26:39.493Z,2.10
2018-12-06T09:29:06.153Z,2.10
2018-12-06T09:31:32.887Z,1.60
2018-12-06T09:34:01.341Z,1.77
2018-12-06T09:36:27.987Z,1.57
2018-12-06T09:38:54.790Z,1.63
2018-12-06T09:41:21.081Z,1.53
2018-12-06T09:43:47.719Z,1.70
2018-12-06T09:46:14.033Z,1.30
2018-12-06T09:48:40.718Z,1.63
2018-12-06T09:51:07.010Z,1.40
2018-12-06T09:53:33.311Z,1.43
2018-12-06T09:55:59.941Z,1.60
2018-12-06T09:58:26.565Z,1.60
2018-12-06T10:00:53.221Z,1.30
2018-12-06T10:03:19.861Z,1.20
2018-12-06T10:05:46.504Z,1.53
2018-12-06T10:08:13.156Z,1.33
2018-12-06T10:10:39.870Z,2.00
2018-12-06T10:13:06.190Z,1.70
2018-12-06T10:15:32.889Z,1.70
2018-12-06T10:17:59.558Z,1.77
2018-12-06T10:20:26.197Z,1.50
2018-12-06T10:22:52.852Z,1.63
2018-12-06T10:25:19.357Z,1.60
2018-12-06T10:27:46.075Z,1.40
2018-12-06T10:30:12.995Z,1.50
2018-12-06T10:32:39.636Z,1.50
2018-12-06T10:35:06.281Z,1.23
2018-12-06T10:37:32.919Z,1.63
2018-12-06T10:39:59.552Z,1.30
2018-12-06T10:42:26.220Z,1.40
2018-12-06T10:44:52.834Z,1.77
2018-12-06T10:47:19.462Z,1.27
2018-12-06T10:49:45.797Z,1.20
2018-12-06T10:52:12.126Z,1.80
2018-12-06T10:54:38.772Z,1.60
2018-12-06T10:57:05.404Z,1.80
2018-12-06T10:59:31.678Z,1.30
2018-12-06T11:02:03.624Z,1.33
2018-12-06T11:04:34.590Z,1.60
2018-12-06T11:07:02.648Z,1.63
2018-12-06T11:09:29.292Z,1.47
2018-12-06T11:11:56.030Z,1.50
2018-12-06T11:14:26.426Z,1.50
2018-12-06T11:16:53.074Z,1.30
2018-12-06T11:20:10.249Z,1.30
2018-12-06T11:22:36.925Z,1.20
2018-12-06T11:25:04.191Z,1.20
2018-12-06T11:27:30.819Z,1.10
2018-12-06T11:29:57.108Z,0.93
2018-12-06T11:32:23.728Z,1.03
2018-12-06T11:34:50.335Z,1.00
2018-12-06T11:37:17.101Z,1.43
2018-12-06T11:39:43.733Z,1.20
2018-12-06T11:42:10.658Z,1.20
2018-12-06T11:44:36.977Z,1.00
2018-12-06T11:47:03.261Z,1.10
2018-12-06T11:49:29.908Z,1.20
2018-12-06T11:51:56.266Z,0.90
2018-12-06T11:54:22.916Z,1.00
2018-12-06T11:56:49.556Z,0.87
2018-12-06T11:59:15.825Z,0.77
2018-12-06T12:01:42.452Z,0.80
2018-12-06T12:04:09.097Z,0.70
2018-12-06T12:06:35.361Z,1.00
2018-12-06T12:09:01.682Z,1.10
2018-12-06T12:11:28.342Z,1.10
2018-12-06T12:13:54.980Z,0.87
2018-12-06T12:16:21.603Z,1.00
2018-12-06T12:18:47.895Z,0.97
2018-12-06T12:21:14.184Z,0.63
2018-12-06T12:23:40.856Z,0.77
2018-12-06T12:26:07.601Z,0.93
2018-12-06T12:28:33.894Z,0.90
2018-12-06T12:31:00.529Z,0.80
2018-12-06T12:33:27.174Z,1.03
2018-12-06T12:35:53.817Z,1.00
2018-12-06T12:38:20.457Z,1.00
2018-12-06T12:40:47.085Z,1.13
2018-12-06T12:43:13.739Z,1.07
2018-12-06T12:45:40.039Z,1.27
2018-12-06T12:48:06.341Z,0.90
2018-12-06T12:50:32.649Z,1.00
2018-12-06T12:52:59.297Z,2.10
2018-12-06T12:55:25.565Z,1.63
2018-12-06T12:57:51.877Z,1.40
2018-12-06T13:00:18.174Z,1.03
2018-12-06T13:02:44.458Z,1.20
2018-12-06T13:05:11.068Z,0.70
2018-12-06T13:07:37.716Z,1.33
2018-12-06T13:10:04.416Z,0.90
2018-12-06T13:12:31.034Z,0.90
2018-12-06T13:14:57.337Z,0.60
2018-12-06T13:17:23.964Z,0.70
2018-12-06T13:19:50.576Z,1.00
2018-12-06T13:22:17.213Z,0.80
2018-12-06T13:24:43.861Z,0.80
2018-12-06T13:27:10.546Z,0.80
2018-12-06T13:29:37.168Z,0.90
2018-12-06T13:32:03.798Z,0.70
2018-12-06T13:34:30.405Z,0.67
2018-12-06T13:36:57.017Z,0.87
2018-12-06T13:39:23.642Z,0.70
2018-12-06T13:41:50.296Z,0.80
2018-12-06T13:44:16.813Z,0.80
2018-12-06T13:46:43.465Z,0.70
2018-12-06T13:49:10.086Z,0.70
2018-12-06T13:51:36.721Z,0.70
2018-12-06T13:54:03.454Z,0.83
2018-12-06T13:56:30.080Z,0.77
2018-12-06T13:58:56.709Z,0.57
2018-12-06T14:01:23.074Z,0.70
2018-12-06T14:03:50.013Z,0.70
2018-12-06T14:06:16.329Z,0.63
2018-12-06T14:08:42.586Z,0.63
2018-12-06T14:11:09.242Z,0.97
2018-12-06T14:13:35.872Z,0.50
2018-12-06T14:16:09.988Z,0.80
2018-12-06T14:18:30.956Z,0.60
2018-12-06T14:20:57.612Z,0.60
2018-12-06T14:23:23.920Z,0.70
2018-12-06T14:25:50.229Z,0.67
2018-12-06T14:28:16.861Z,0.50
2018-12-06T14:30:43.567Z,0.80
2018-12-06T14:33:10.209Z,1.00
2018-12-06T14:35:36.833Z,0.53
2018-12-06T14:38:03.466Z,0.60
2018-12-06T14:40:30.092Z,0.80
2018-12-06T14:42:56.417Z,0.60
2018-12-06T14:45:23.191Z,1.03
2018-12-06T14:47:49.840Z,0.80
2018-12-06T14:50:16.116Z,0.50
2018-12-06T14:52:43.029Z,0.73
2018-12-06T14:55:09.661Z,0.60
2018-12-06T14:57:36.291Z,0.90
2018-12-06T15:00:03.533Z,0.63
2018-12-06T15:02:30.154Z,0.50
2018-12-06T15:04:56.790Z,0.53
2018-12-06T15:07:23.467Z,0.60
2018-12-06T15:09:50.088Z,0.50
2018-12-06T15:12:16.734Z,0.67
2018-12-06T15:14:43.355Z,0.53
2018-12-06T15:17:09.600Z,0.53
2018-12-06T15:19:36.224Z,0.80
2018-12-06T15:22:02.885Z,0.60
2018-12-06T15:24:29.508Z,0.70
2018-12-06T15:26:56.172Z,0.60
2018-12-06T15:29:22.784Z,0.40
2018-12-06T15:31:49.425Z,0.40
2018-12-06T15:34:15.711Z,0.40
2018-12-06T15:36:42.012Z,0.40
2018-12-06T15:39:08.666Z,0.37
2018-12-06T15:41:35.353Z,0.60
2018-12-06T15:44:01.645Z,0.70
2018-12-06T15:46:28.272Z,0.60
2018-12-06T15:48:54.933Z,0.70
2018-12-06T15:51:21.233Z,0.60
2018-12-06T15:53:47.896Z,0.60
2018-12-06T15:56:14.188Z,0.60
2018-12-06T15:58:40.809Z,0.90
2018-12-06T16:01:07.113Z,0.70
2018-12-06T16:03:33.744Z,0.60
2018-12-06T16:06:00.384Z,0.80
2018-12-06T16:08:27.124Z,0.50
2018-12-06T16:10:53.912Z,0.77
2018-12-06T16:13:20.543Z,0.90
2018-12-06T16:15:47.183Z,0.73
2018-12-06T16:18:13.467Z,0.60
2018-12-06T16:20:40.099Z,0.50
2018-12-06T16:23:06.738Z,0.60
2018-12-06T16:25:33.367Z,0.43
2018-12-06T16:27:59.990Z,0.57
2018-12-06T16:30:26.606Z,0.50
2018-12-06T16:32:52.885Z,0.50
2018-12-06T16:35:19.494Z,0.50
2018-12-06T16:37:46.124Z,0.50
2018-12-06T16:40:12.788Z,0.93
2018-12-06T16:42:39.068Z,1.00
2018-12-06T16:45:05.813Z,0.80
2018-12-06T16:47:32.473Z,0.50
2018-12-06T16:49:59.136Z,0.63
2018-12-06T16:52:25.417Z,0.53
2018-12-06T16:54:51.702Z,0.50
2018-12-06T16:57:18.320Z,0.50
2018-12-06T16:59:44.633Z,0.50
2018-12-06T17:02:11.293Z,0.60
2018-12-06T17:04:38.042Z,0.47
2018-12-06T17:07:04.326Z,0.57
2018-12-06T17:09:30.951Z,0.63
2018-12-06T17:11:57.597Z,0.90
2018-12-06T17:14:24.240Z,1.00
2018-12-06T17:16:50.601Z,0.80
2018-12-06T17:19:17.289Z,0.87
2018-12-06T17:21:43.558Z,0.63
2018-12-06T17:24:10.201Z,0.80
2018-12-06T17:26:36.820Z,0.63
2018-12-06T17:29:03.460Z,0.87
2018-12-06T17:31:30.159Z,1.00
2018-12-06T17:33:56.800Z,0.87
2018-12-06T17:36:23.552Z,0.63
2018-12-06T17:38:49.962Z,1.30
2018-12-06T17:41:16.934Z,1.00
2018-12-06T17:43:43.218Z,6.63
2018-12-06T17:46:09.862Z,3.67
2018-12-06T17:48:36.800Z,2.63
2018-12-06T17:51:03.465Z,2.20
2018-12-06T17:53:30.188Z,1.20
2018-12-06T17:55:56.741Z,2.50
2018-12-06T17:58:23.424Z,1.90
2018-12-06T18:00:50.066Z,1.70
2018-12-06T18:03:23.563Z,4.33
2018-12-06T18:05:50.264Z,13.23
2018-12-06T18:08:17.035Z,8.93
2018-12-06T18:10:43.677Z,7.37
2018-12-06T18:25:46.431Z,2.87
2018-12-06T18:28:13.068Z,2.00
2018-12-06T18:30:39.716Z,1.57
2018-12-06T18:33:06.339Z,1.20
2018-12-06T18:35:32.633Z,1.07
2018-12-06T18:37:59.263Z,1.00
2018-12-06T18:40:25.905Z,1.60
2018-12-06T18:42:59.475Z,1.37
2018-12-06T18:45:26.112Z,1.13
2018-12-06T18:47:52.741Z,1.40
2018-12-06T18:50:19.495Z,1.27
2018-12-06T18:52:46.144Z,1.10
2018-12-06T18:55:12.773Z,0.73
2018-12-06T18:57:39.416Z,0.80
2018-12-06T19:00:07.262Z,1.70
2018-12-06T19:02:33.929Z,2.37
2018-12-06T19:05:00.593Z,1.20
2018-12-06T19:07:26.878Z,1.40
2018-12-06T19:09:53.186Z,1.57
2018-12-06T19:12:19.838Z,1.50
2018-12-06T19:14:46.533Z,1.00
2018-12-06T19:17:13.235Z,1.10
2018-12-06T19:19:39.884Z,7.93
2018-12-06T19:22:06.564Z,3.30
2018-12-06T19:24:32.866Z,1.43
2018-12-06T19:26:59.543Z,1.30
2018-12-06T19:29:26.290Z,1.00
2018-12-06T19:31:52.597Z,0.77
2018-12-06T19:34:19.244Z,0.60
2018-12-06T19:36:46.751Z,0.70
2018-12-06T19:39:20.253Z,0.50
2018-12-06T19:41:46.920Z,1.20
2018-12-06T19:44:13.648Z,1.07
2018-12-06T19:46:41.926Z,0.70
2018-12-06T19:49:09.285Z,0.57
2018-12-06T19:51:35.813Z,0.80
2018-12-06T19:54:02.185Z,0.57
2018-12-06T19:56:29.135Z,0.70
2018-12-06T19:58:55.456Z,0.70
2018-12-06T20:01:22.217Z,1.10
2018-12-06T20:03:49.052Z,1.33
2018-12-06T20:06:17.214Z,2.33
2018-12-06T20:08:44.640Z,2.40
2018-12-06T20:11:11.906Z,1.70
2018-12-06T20:13:38.564Z,1.10
2018-12-06T20:16:05.228Z,0.97
2018-12-06T20:18:31.853Z,0.80
2018-12-06T20:20:58.819Z,0.70
2018-12-06T20:23:25.516Z,0.80
2018-12-06T20:25:52.192Z,0.60
2018-12-06T20:28:26.144Z,0.60
2018-12-06T20:30:47.551Z,0.83
2018-12-06T20:33:14.237Z,0.67
2018-12-06T20:35:40.629Z,0.60
2018-12-06T20:38:07.657Z,0.77
2018-12-06T20:40:34.133Z,0.80
2018-12-06T20:43:00.641Z,0.80
2018-12-06T20:45:27.287Z,0.73
2018-12-06T20:47:54.029Z,0.67
2018-12-06T20:50:20.705Z,0.70
2018-12-06T20:52:47.425Z,0.60
2018-12-06T20:55:13.921Z,0.70
2018-12-06T20:57:40.772Z,0.60
2018-12-06T21:00:07.744Z,0.70
2018-12-06T21:02:34.522Z,0.70
2018-12-06T21:05:01.863Z,0.60
2018-12-06T21:07:28.625Z,0.87
2018-12-06T21:09:55.297Z,1.40
2018-12-06T21:12:22.135Z,1.10
2018-12-06T21:14:48.935Z,1.00
2018-12-06T21:17:15.661Z,0.90
2018-12-06T21:19:42.553Z,0.70
2018-12-06T21:22:09.330Z,1.00
2018-12-06T21:24:35.984Z,1.10
2018-12-06T21:27:02.741Z,1.13
2018-12-06T21:29:29.166Z,1.43
2018-12-06T21:31:55.955Z,1.10
2018-12-06T21:34:22.355Z,1.63
2018-12-06T21:36:49.307Z,6.00
2018-12-06T21:39:16.197Z,3.57
2018-12-06T21:41:42.729Z,1.57
2018-12-06T21:44:09.123Z,1.63
2018-12-06T21:46:35.801Z,0.87
2018-12-06T21:49:02.718Z,0.93
2018-12-06T21:51:29.734Z,0.80
2018-12-06T21:53:56.698Z,0.80
2018-12-06T21:56:23.459Z,1.57
2018-12-06T21:58:50.435Z,1.37
2018-12-06T22:01:17.137Z,0.83
2018-12-06T22:03:43.954Z,0.93
2018-12-06T22:06:10.857Z,1.00
2018-12-06T22:08:37.672Z,0.93
2018-12-06T22:11:05.388Z,0.87
2018-12-06T22:13:32.448Z,1.20
2018-12-06T22:15:59.535Z,1.00
2018-12-06T22:18:25.968Z,2.20
2018-12-06T22:20:52.743Z,2.30
2018-12-06T22:23:19.408Z,1.60
2018-12-06T22:25:46.141Z,1.00
2018-12-06T22:28:12.861Z,0.90
2018-12-06T22:30:39.612Z,0.83
2018-12-06T22:33:06.641Z,1.20
2018-12-06T22:35:33.358Z,1.20
2018-12-06T22:38:00.216Z,1.00
2018-12-06T22:40:27.215Z,0.70
2018-12-06T22:42:54.072Z,1.00
2018-12-06T22:45:32.900Z,0.90
2018-12-06T22:47:59.544Z,0.90
2018-12-06T22:50:25.855Z,0.60
2018-12-06T22:52:53.445Z,0.70
2018-12-06T22:55:20.257Z,0.93
2018-12-06T22:57:47.461Z,0.60
2018-12-06T23:03:01.494Z,0.90
2018-12-06T23:05:27.917Z,0.63
2018-12-06T23:07:54.555Z,1.10
2018-12-06T23:10:21.269Z,0.80
2018-12-06T23:12:47.968Z,0.50
2018-12-06T23:15:14.265Z,0.60
2018-12-06T23:17:41.012Z,0.90
2018-12-06T23:20:07.849Z,0.53
2018-12-06T23:22:34.581Z,0.80
2018-12-06T23:25:01.216Z,0.90
2018-12-06T23:27:27.627Z,0.70
2018-12-06T23:29:54.392Z,0.83
2018-12-06T23:32:21.014Z,0.60
2018-12-06T23:34:47.772Z,0.43
2018-12-06T23:37:14.427Z,0.70
2018-12-06T23:39:41.041Z,0.43
2018-12-06T23:42:07.683Z,0.40
2018-12-06T23:44:33.997Z,0.50
2018-12-06T23:47:00.268Z,0.63
2018-12-06T23:49:26.898Z,0.73
2018-12-06T23:51:53.178Z,0.60
2018-12-06T23:54:19.799Z,0.60
2018-12-06T23:56:47.346Z,0.40
2018-12-06T23:59:13.609Z,0.60
